sensor_id;sensor_type;location;lat;lon;timestamp;P1;durP1;ratioP1;P2;durP2;ratioP2
21868;SDS011;11099;41.564;23.296;2023-04-06T00:00:01;10.95;;;9.35;;
21868;SDS011;11099;41.564;23.296;2023-04-06T00:02:26;12.88;;;10.32;;
21868;SDS011;11099;41.564;23.296;2023-04-06T00:04:52;11.75;;;10.48;;
21868;SDS011;11099;41.564;23.296;2023-04-06T00:07:17;12.35;;;10.45;;
21868;SDS011;11099;41.564;23.296;2023-04-06T00:09:42;11.55;;;9.95;;
21868;SDS011;11099;41.564;23.296;2023-04-06T00:12:07;11.40;;;10.20;;
21868;SDS011;11099;41.564;23.296;2023-04-06T00:14:33;12.45;;;10.00;;
21868;SDS011;11099;41.564;23.296;2023-04-06T00:16:58;12.15;;;10.10;;
21868;SDS011;11099;41.564;23.296;2023-04-06T00:19:23;11.50;;;9.73;;
21868;SDS011;11099;41.564;23.296;2023-04-06T00:21:49;11.63;;;10.07;;
21868;SDS011;11099;41.564;23.296;2023-04-06T00:24:14;10.60;;;9.50;;
21868;SDS011;11099;41.564;23.296;2023-04-06T00:26:39;12.25;;;10.48;;
21868;SDS011;11099;41.564;23.296;2023-04-06T00:29:05;11.13;;;9.93;;
21868;SDS011;11099;41.564;23.296;2023-04-06T00:31:30;12.15;;;9.93;;
21868;SDS011;11099;41.564;23.296;2023-04-06T00:33:55;13.13;;;10.80;;
21868;SDS011;11099;41.564;23.296;2023-04-06T00:36:21;11.07;;;9.40;;
21868;SDS011;11099;41.564;23.296;2023-04-06T00:38:46;11.50;;;9.80;;
21868;SDS011;11099;41.564;23.296;2023-04-06T00:41:11;11.55;;;9.30;;
21868;SDS011;11099;41.564;23.296;2023-04-06T00:43:37;13.25;;;9.60;;
21868;SDS011;11099;41.564;23.296;2023-04-06T00:46:02;10.30;;;9.18;;
21868;SDS011;11099;41.564;23.296;2023-04-06T00:48:27;11.18;;;9.55;;
21868;SDS011;11099;41.564;23.296;2023-04-06T00:50:55;12.45;;;9.85;;
21868;SDS011;11099;41.564;23.296;2023-04-06T00:53:20;12.18;;;10.40;;
21868;SDS011;11099;41.564;23.296;2023-04-06T00:55:46;11.02;;;9.43;;
21868;SDS011;11099;41.564;23.296;2023-04-06T00:58:11;9.70;;;8.70;;
21868;SDS011;11099;41.564;23.296;2023-04-06T01:00:37;13.25;;;9.48;;
21868;SDS011;11099;41.564;23.296;2023-04-06T01:03:02;11.13;;;9.25;;
21868;SDS011;11099;41.564;23.296;2023-04-06T01:05:32;10.50;;;8.90;;
21868;SDS011;11099;41.564;23.296;2023-04-06T01:07:58;10.90;;;9.55;;
21868;SDS011;11099;41.564;23.296;2023-04-06T01:10:27;11.38;;;9.20;;
21868;SDS011;11099;41.564;23.296;2023-04-06T01:15:17;10.20;;;8.70;;
21868;SDS011;11099;41.564;23.296;2023-04-06T01:17:43;12.45;;;9.75;;
21868;SDS011;11099;41.564;23.296;2023-04-06T01:20:08;13.05;;;9.38;;
21868;SDS011;11099;41.564;23.296;2023-04-06T01:22:34;10.98;;;9.65;;
21868;SDS011;11099;41.564;23.296;2023-04-06T01:24:59;10.68;;;9.52;;
21868;SDS011;11099;41.564;23.296;2023-04-06T01:27:25;11.27;;;9.38;;
21868;SDS011;11099;41.564;23.296;2023-04-06T01:29:51;11.40;;;9.63;;
21868;SDS011;11099;41.564;23.296;2023-04-06T01:32:16;11.43;;;10.18;;
21868;SDS011;11099;41.564;23.296;2023-04-06T01:34:42;10.52;;;9.32;;
21868;SDS011;11099;41.564;23.296;2023-04-06T01:37:07;12.15;;;10.00;;
21868;SDS011;11099;41.564;23.296;2023-04-06T01:39:33;13.93;;;9.65;;
21868;SDS011;11099;41.564;23.296;2023-04-06T01:41:58;12.82;;;10.20;;
21868;SDS011;11099;41.564;23.296;2023-04-06T01:44:23;11.80;;;9.40;;
21868;SDS011;11099;41.564;23.296;2023-04-06T01:46:48;10.77;;;9.57;;
21868;SDS011;11099;41.564;23.296;2023-04-06T01:49:14;12.18;;;9.18;;
21868;SDS011;11099;41.564;23.296;2023-04-06T01:51:40;12.68;;;9.77;;
21868;SDS011;11099;41.564;23.296;2023-04-06T01:54:05;12.25;;;9.45;;
21868;SDS011;11099;41.564;23.296;2023-04-06T01:56:30;11.00;;;9.20;;
21868;SDS011;11099;41.564;23.296;2023-04-06T01:58:56;12.20;;;10.32;;
21868;SDS011;11099;41.564;23.296;2023-04-06T02:01:21;12.55;;;10.20;;
21868;SDS011;11099;41.564;23.296;2023-04-06T02:03:46;12.35;;;9.30;;
21868;SDS011;11099;41.564;23.296;2023-04-06T02:06:13;11.18;;;9.70;;
21868;SDS011;11099;41.564;23.296;2023-04-06T02:08:39;14.07;;;10.55;;
21868;SDS011;11099;41.564;23.296;2023-04-06T02:11:04;14.48;;;10.82;;
21868;SDS011;11099;41.564;23.296;2023-04-06T02:13:30;13.77;;;11.05;;
21868;SDS011;11099;41.564;23.296;2023-04-06T02:15:55;13.73;;;10.50;;
21868;SDS011;11099;41.564;23.296;2023-04-06T02:18:22;13.40;;;11.02;;
21868;SDS011;11099;41.564;23.296;2023-04-06T02:20:47;15.18;;;11.65;;
21868;SDS011;11099;41.564;23.296;2023-04-06T02:23:12;16.80;;;11.02;;
21868;SDS011;11099;41.564;23.296;2023-04-06T02:25:38;13.50;;;11.30;;
21868;SDS011;11099;41.564;23.296;2023-04-06T02:28:03;15.23;;;11.00;;
21868;SDS011;11099;41.564;23.296;2023-04-06T02:30:29;13.45;;;10.70;;
21868;SDS011;11099;41.564;23.296;2023-04-06T02:32:55;16.60;;;11.65;;
21868;SDS011;11099;41.564;23.296;2023-04-06T02:35:20;12.32;;;9.55;;
21868;SDS011;11099;41.564;23.296;2023-04-06T02:37:46;14.82;;;10.32;;
21868;SDS011;11099;41.564;23.296;2023-04-06T02:40:11;14.98;;;11.15;;
21868;SDS011;11099;41.564;23.296;2023-04-06T02:42:36;13.52;;;10.45;;
21868;SDS011;11099;41.564;23.296;2023-04-06T02:45:02;12.30;;;9.90;;
21868;SDS011;11099;41.564;23.296;2023-04-06T02:47:27;14.55;;;10.30;;
21868;SDS011;11099;41.564;23.296;2023-04-06T02:49:52;14.52;;;10.60;;
21868;SDS011;11099;41.564;23.296;2023-04-06T02:52:18;11.93;;;10.00;;
21868;SDS011;11099;41.564;23.296;2023-04-06T02:54:43;16.85;;;10.82;;
21868;SDS011;11099;41.564;23.296;2023-04-06T02:57:08;12.63;;;10.15;;
21868;SDS011;11099;41.564;23.296;2023-04-06T02:59:34;12.25;;;10.02;;
21868;SDS011;11099;41.564;23.296;2023-04-06T03:01:59;14.20;;;9.90;;
21868;SDS011;11099;41.564;23.296;2023-04-06T03:04:25;12.18;;;9.35;;
21868;SDS011;11099;41.564;23.296;2023-04-06T03:06:50;13.60;;;10.27;;
21868;SDS011;11099;41.564;23.296;2023-04-06T03:09:16;14.50;;;11.00;;
21868;SDS011;11099;41.564;23.296;2023-04-06T03:11:41;13.48;;;10.93;;
21868;SDS011;11099;41.564;23.296;2023-04-06T03:14:06;12.85;;;10.02;;
21868;SDS011;11099;41.564;23.296;2023-04-06T03:16:32;13.43;;;10.05;;
21868;SDS011;11099;41.564;23.296;2023-04-06T03:18:57;14.13;;;10.55;;
21868;SDS011;11099;41.564;23.296;2023-04-06T03:21:22;12.27;;;9.38;;
21868;SDS011;11099;41.564;23.296;2023-04-06T03:23:48;17.83;;;10.05;;
21868;SDS011;11099;41.564;23.296;2023-04-06T03:26:16;16.63;;;10.98;;
21868;SDS011;11099;41.564;23.296;2023-04-06T03:28:42;15.98;;;11.48;;
21868;SDS011;11099;41.564;23.296;2023-04-06T03:31:07;14.32;;;10.20;;
21868;SDS011;11099;41.564;23.296;2023-04-06T03:33:32;18.48;;;10.43;;
21868;SDS011;11099;41.564;23.296;2023-04-06T03:35:58;13.00;;;10.57;;
21868;SDS011;11099;41.564;23.296;2023-04-06T03:38:23;13.93;;;10.40;;
21868;SDS011;11099;41.564;23.296;2023-04-06T03:40:48;14.43;;;9.68;;
21868;SDS011;11099;41.564;23.296;2023-04-06T03:43:14;12.02;;;10.02;;
21868;SDS011;11099;41.564;23.296;2023-04-06T03:45:39;12.63;;;10.68;;
21868;SDS011;11099;41.564;23.296;2023-04-06T03:48:05;14.70;;;10.95;;
21868;SDS011;11099;41.564;23.296;2023-04-06T03:50:30;19.40;;;13.05;;
21868;SDS011;11099;41.564;23.296;2023-04-06T03:52:55;14.82;;;11.85;;
21868;SDS011;11099;41.564;23.296;2023-04-06T03:55:21;15.35;;;10.65;;
21868;SDS011;11099;41.564;23.296;2023-04-06T03:57:46;16.25;;;11.30;;
21868;SDS011;11099;41.564;23.296;2023-04-06T04:00:12;17.00;;;11.40;;
21868;SDS011;11099;41.564;23.296;2023-04-06T04:02:37;14.10;;;10.80;;
21868;SDS011;11099;41.564;23.296;2023-04-06T04:05:03;46.05;;;25.85;;
21868;SDS011;11099;41.564;23.296;2023-04-06T04:07:28;36.97;;;20.83;;
21868;SDS011;11099;41.564;23.296;2023-04-06T04:09:53;29.13;;;18.30;;
21868;SDS011;11099;41.564;23.296;2023-04-06T04:12:19;31.27;;;22.00;;
21868;SDS011;11099;41.564;23.296;2023-04-06T04:14:44;30.17;;;23.10;;
21868;SDS011;11099;41.564;23.296;2023-04-06T04:17:09;32.15;;;22.88;;
21868;SDS011;11099;41.564;23.296;2023-04-06T04:19:35;31.10;;;22.00;;
21868;SDS011;11099;41.564;23.296;2023-04-06T04:22:00;28.73;;;18.92;;
21868;SDS011;11099;41.564;23.296;2023-04-06T04:24:29;24.83;;;15.55;;
21868;SDS011;11099;41.564;23.296;2023-04-06T04:26:54;25.30;;;15.90;;
21868;SDS011;11099;41.564;23.296;2023-04-06T04:29:21;14.68;;;10.98;;
21868;SDS011;11099;41.564;23.296;2023-04-06T04:31:47;16.02;;;11.50;;
21868;SDS011;11099;41.564;23.296;2023-04-06T04:34:13;13.68;;;9.82;;
21868;SDS011;11099;41.564;23.296;2023-04-06T04:36:39;15.82;;;10.90;;
21868;SDS011;11099;41.564;23.296;2023-04-06T04:39:06;16.00;;;10.18;;
21868;SDS011;11099;41.564;23.296;2023-04-06T04:41:32;13.13;;;9.68;;
21868;SDS011;11099;41.564;23.296;2023-04-06T04:43:57;44.63;;;33.83;;
21868;SDS011;11099;41.564;23.296;2023-04-06T04:46:22;14.32;;;10.48;;
21868;SDS011;11099;41.564;23.296;2023-04-06T04:48:48;12.20;;;10.35;;
21868;SDS011;11099;41.564;23.296;2023-04-06T04:51:13;16.88;;;10.75;;
21868;SDS011;11099;41.564;23.296;2023-04-06T04:53:38;20.77;;;12.82;;
21868;SDS011;11099;41.564;23.296;2023-04-06T04:56:03;38.60;;;23.30;;
21868;SDS011;11099;41.564;23.296;2023-04-06T04:58:29;25.13;;;17.27;;
21868;SDS011;11099;41.564;23.296;2023-04-06T05:00:55;26.73;;;19.92;;
21868;SDS011;11099;41.564;23.296;2023-04-06T05:03:24;30.02;;;17.27;;
21868;SDS011;11099;41.564;23.296;2023-04-06T05:05:50;22.08;;;14.38;;
21868;SDS011;11099;41.564;23.296;2023-04-06T05:08:16;20.38;;;12.27;;
21868;SDS011;11099;41.564;23.296;2023-04-06T05:10:41;33.25;;;14.85;;
21868;SDS011;11099;41.564;23.296;2023-04-06T05:13:06;14.73;;;11.07;;
21868;SDS011;11099;41.564;23.296;2023-04-06T05:15:32;13.65;;;10.70;;
21868;SDS011;11099;41.564;23.296;2023-04-06T05:17:59;18.45;;;11.52;;
21868;SDS011;11099;41.564;23.296;2023-04-06T05:20:25;13.50;;;10.68;;
21868;SDS011;11099;41.564;23.296;2023-04-06T05:22:50;12.95;;;10.52;;
21868;SDS011;11099;41.564;23.296;2023-04-06T05:25:16;20.52;;;14.50;;
21868;SDS011;11099;41.564;23.296;2023-04-06T05:27:41;36.67;;;26.17;;
21868;SDS011;11099;41.564;23.296;2023-04-06T05:30:07;19.67;;;12.48;;
21868;SDS011;11099;41.564;23.296;2023-04-06T05:32:32;16.05;;;10.05;;
21868;SDS011;11099;41.564;23.296;2023-04-06T05:34:58;13.95;;;9.73;;
21868;SDS011;11099;41.564;23.296;2023-04-06T05:37:23;14.88;;;11.27;;
21868;SDS011;11099;41.564;23.296;2023-04-06T05:39:49;16.05;;;11.45;;
21868;SDS011;11099;41.564;23.296;2023-04-06T05:42:14;13.05;;;8.75;;
21868;SDS011;11099;41.564;23.296;2023-04-06T05:44:40;11.07;;;8.43;;
21868;SDS011;11099;41.564;23.296;2023-04-06T05:47:05;10.65;;;8.07;;
21868;SDS011;11099;41.564;23.296;2023-04-06T05:49:31;14.82;;;9.50;;
21868;SDS011;11099;41.564;23.296;2023-04-06T05:51:56;11.43;;;8.00;;
21868;SDS011;11099;41.564;23.296;2023-04-06T05:54:21;11.50;;;8.35;;
21868;SDS011;11099;41.564;23.296;2023-04-06T05:56:47;14.20;;;11.70;;
21868;SDS011;11099;41.564;23.296;2023-04-06T05:59:13;10.82;;;8.18;;
21868;SDS011;11099;41.564;23.296;2023-04-06T06:01:38;10.90;;;7.78;;
21868;SDS011;11099;41.564;23.296;2023-04-06T06:04:03;8.55;;;7.63;;
21868;SDS011;11099;41.564;23.296;2023-04-06T06:06:29;8.90;;;7.38;;
21868;SDS011;11099;41.564;23.296;2023-04-06T06:08:55;9.57;;;8.00;;
21868;SDS011;11099;41.564;23.296;2023-04-06T06:11:23;13.40;;;8.32;;
21868;SDS011;11099;41.564;23.296;2023-04-06T06:13:48;10.05;;;7.80;;
21868;SDS011;11099;41.564;23.296;2023-04-06T06:16:13;11.38;;;8.43;;
21868;SDS011;11099;41.564;23.296;2023-04-06T06:18:39;14.25;;;9.10;;
21868;SDS011;11099;41.564;23.296;2023-04-06T06:21:04;9.82;;;8.27;;
21868;SDS011;11099;41.564;23.296;2023-04-06T06:23:30;11.43;;;7.45;;
21868;SDS011;11099;41.564;23.296;2023-04-06T06:25:55;13.07;;;8.85;;
21868;SDS011;11099;41.564;23.296;2023-04-06T06:28:23;12.40;;;9.82;;
21868;SDS011;11099;41.564;23.296;2023-04-06T06:30:50;14.15;;;8.00;;
21868;SDS011;11099;41.564;23.296;2023-04-06T06:33:15;10.60;;;7.72;;
21868;SDS011;11099;41.564;23.296;2023-04-06T06:35:40;8.48;;;7.10;;
21868;SDS011;11099;41.564;23.296;2023-04-06T06:38:06;13.15;;;9.13;;
21868;SDS011;11099;41.564;23.296;2023-04-06T06:40:31;10.50;;;9.48;;
21868;SDS011;11099;41.564;23.296;2023-04-06T06:42:56;8.82;;;7.93;;
21868;SDS011;11099;41.564;23.296;2023-04-06T06:45:22;9.25;;;7.70;;
21868;SDS011;11099;41.564;23.296;2023-04-06T06:47:47;10.52;;;7.97;;
21868;SDS011;11099;41.564;23.296;2023-04-06T06:50:12;14.18;;;11.07;;
21868;SDS011;11099;41.564;23.296;2023-04-06T06:52:38;12.50;;;9.48;;
21868;SDS011;11099;41.564;23.296;2023-04-06T06:55:03;12.73;;;10.55;;
21868;SDS011;11099;41.564;23.296;2023-04-06T06:57:29;11.63;;;9.80;;
21868;SDS011;11099;41.564;23.296;2023-04-06T06:59:54;17.10;;;13.63;;
21868;SDS011;11099;41.564;23.296;2023-04-06T07:02:19;18.60;;;12.38;;
21868;SDS011;11099;41.564;23.296;2023-04-06T07:04:47;17.08;;;12.05;;
21868;SDS011;11099;41.564;23.296;2023-04-06T07:07:12;18.20;;;10.55;;
21868;SDS011;11099;41.564;23.296;2023-04-06T07:09:38;14.75;;;10.88;;
21868;SDS011;11099;41.564;23.296;2023-04-06T07:12:03;11.32;;;9.68;;
21868;SDS011;11099;41.564;23.296;2023-04-06T07:14:28;9.38;;;6.95;;
21868;SDS011;11099;41.564;23.296;2023-04-06T07:16:53;7.25;;;6.55;;
21868;SDS011;11099;41.564;23.296;2023-04-06T07:19:19;8.93;;;6.53;;
21868;SDS011;11099;41.564;23.296;2023-04-06T07:21:44;8.77;;;5.95;;
21868;SDS011;11099;41.564;23.296;2023-04-06T07:24:10;7.72;;;6.15;;
21868;SDS011;11099;41.564;23.296;2023-04-06T07:26:35;8.07;;;6.35;;
21868;SDS011;11099;41.564;23.296;2023-04-06T07:29:00;8.18;;;5.55;;
21868;SDS011;11099;41.564;23.296;2023-04-06T07:31:25;7.72;;;6.00;;
21868;SDS011;11099;41.564;23.296;2023-04-06T07:33:51;7.28;;;6.03;;
21868;SDS011;11099;41.564;23.296;2023-04-06T07:36:16;7.28;;;6.53;;
21868;SDS011;11099;41.564;23.296;2023-04-06T07:38:41;6.75;;;6.00;;
21868;SDS011;11099;41.564;23.296;2023-04-06T07:41:07;6.43;;;5.78;;
21868;SDS011;11099;41.564;23.296;2023-04-06T07:43:32;9.55;;;6.30;;
21868;SDS011;11099;41.564;23.296;2023-04-06T07:45:58;7.85;;;5.97;;
21868;SDS011;11099;41.564;23.296;2023-04-06T07:48:24;8.05;;;6.05;;
21868;SDS011;11099;41.564;23.296;2023-04-06T07:50:50;10.43;;;6.40;;
21868;SDS011;11099;41.564;23.296;2023-04-06T07:53:15;7.88;;;6.00;;
21868;SDS011;11099;41.564;23.296;2023-04-06T07:55:40;6.53;;;5.70;;
21868;SDS011;11099;41.564;23.296;2023-04-06T07:58:06;11.38;;;6.15;;
21868;SDS011;11099;41.564;23.296;2023-04-06T08:00:31;7.45;;;6.40;;
21868;SDS011;11099;41.564;23.296;2023-04-06T08:02:57;17.33;;;6.30;;
21868;SDS011;11099;41.564;23.296;2023-04-06T08:05:22;10.93;;;6.47;;
21868;SDS011;11099;41.564;23.296;2023-04-06T08:07:47;6.53;;;5.95;;
21868;SDS011;11099;41.564;23.296;2023-04-06T08:10:13;8.90;;;6.50;;
21868;SDS011;11099;41.564;23.296;2023-04-06T08:12:38;8.95;;;6.60;;
21868;SDS011;11099;41.564;23.296;2023-04-06T08:15:03;8.35;;;6.03;;
21868;SDS011;11099;41.564;23.296;2023-04-06T08:17:29;8.73;;;6.28;;
21868;SDS011;11099;41.564;23.296;2023-04-06T08:19:56;8.27;;;6.38;;
21868;SDS011;11099;41.564;23.296;2023-04-06T08:22:21;8.20;;;6.38;;
21868;SDS011;11099;41.564;23.296;2023-04-06T08:24:46;7.72;;;6.75;;
21868;SDS011;11099;41.564;23.296;2023-04-06T08:27:12;8.15;;;6.07;;
21868;SDS011;11099;41.564;23.296;2023-04-06T08:29:39;8.88;;;6.25;;
21868;SDS011;11099;41.564;23.296;2023-04-06T08:32:04;9.05;;;7.28;;
21868;SDS011;11099;41.564;23.296;2023-04-06T08:34:30;7.00;;;6.30;;
21868;SDS011;11099;41.564;23.296;2023-04-06T08:36:56;6.68;;;5.97;;
21868;SDS011;11099;41.564;23.296;2023-04-06T08:39:21;8.02;;;6.13;;
21868;SDS011;11099;41.564;23.296;2023-04-06T08:41:50;6.22;;;5.63;;
21868;SDS011;11099;41.564;23.296;2023-04-06T08:44:17;6.93;;;6.10;;
21868;SDS011;11099;41.564;23.296;2023-04-06T08:46:43;6.40;;;5.80;;
21868;SDS011;11099;41.564;23.296;2023-04-06T08:49:08;6.60;;;5.95;;
21868;SDS011;11099;41.564;23.296;2023-04-06T08:51:34;6.90;;;6.13;;
21868;SDS011;11099;41.564;23.296;2023-04-06T08:54:00;6.97;;;6.32;;
21868;SDS011;11099;41.564;23.296;2023-04-06T08:56:26;6.07;;;5.43;;
21868;SDS011;11099;41.564;23.296;2023-04-06T08:58:55;6.22;;;5.63;;
21868;SDS011;11099;41.564;23.296;2023-04-06T09:01:21;10.45;;;6.05;;
21868;SDS011;11099;41.564;23.296;2023-04-06T09:03:46;7.18;;;5.70;;
21868;SDS011;11099;41.564;23.296;2023-04-06T09:06:13;6.38;;;5.88;;
21868;SDS011;11099;41.564;23.296;2023-04-06T09:08:39;6.65;;;6.03;;
21868;SDS011;11099;41.564;23.296;2023-04-06T09:11:05;6.70;;;6.03;;
21868;SDS011;11099;41.564;23.296;2023-04-06T09:13:30;6.75;;;6.00;;
21868;SDS011;11099;41.564;23.296;2023-04-06T09:16:02;12.68;;;6.32;;
21868;SDS011;11099;41.564;23.296;2023-04-06T09:18:31;8.65;;;6.82;;
21868;SDS011;11099;41.564;23.296;2023-04-06T09:21:00;5.78;;;5.28;;
21868;SDS011;11099;41.564;23.296;2023-04-06T09:23:25;7.55;;;5.57;;
21868;SDS011;11099;41.564;23.296;2023-04-06T09:25:51;5.40;;;5.00;;
21868;SDS011;11099;41.564;23.296;2023-04-06T09:28:16;5.28;;;4.78;;
21868;SDS011;11099;41.564;23.296;2023-04-06T09:30:48;5.30;;;4.80;;
21868;SDS011;11099;41.564;23.296;2023-04-06T09:33:21;5.50;;;5.00;;
21868;SDS011;11099;41.564;23.296;2023-04-06T09:35:49;5.07;;;4.68;;
21868;SDS011;11099;41.564;23.296;2023-04-06T09:38:14;5.45;;;4.75;;
21868;SDS011;11099;41.564;23.296;2023-04-06T09:40:52;6.28;;;5.57;;
21868;SDS011;11099;41.564;23.296;2023-04-06T09:43:24;5.60;;;5.13;;
21868;SDS011;11099;41.564;23.296;2023-04-06T09:45:50;6.00;;;5.40;;
21868;SDS011;11099;41.564;23.296;2023-04-06T09:48:16;6.75;;;5.13;;
21868;SDS011;11099;41.564;23.296;2023-04-06T09:50:41;5.00;;;4.55;;
21868;SDS011;11099;41.564;23.296;2023-04-06T09:53:07;6.05;;;4.68;;
21868;SDS011;11099;41.564;23.296;2023-04-06T09:55:42;6.70;;;5.95;;
21868;SDS011;11099;41.564;23.296;2023-04-06T09:58:15;5.70;;;5.20;;
21868;SDS011;11099;41.564;23.296;2023-04-06T10:00:44;5.32;;;4.65;;
21868;SDS011;11099;41.564;23.296;2023-04-06T10:03:19;4.60;;;4.20;;
21868;SDS011;11099;41.564;23.296;2023-04-06T10:05:52;4.47;;;4.07;;
21868;SDS011;11099;41.564;23.296;2023-04-06T10:08:20;3.80;;;3.50;;
21868;SDS011;11099;41.564;23.296;2023-04-06T10:10:49;4.95;;;4.45;;
21868;SDS011;11099;41.564;23.296;2023-04-06T10:13:15;5.18;;;4.68;;
21868;SDS011;11099;41.564;23.296;2023-04-06T10:15:41;4.32;;;3.92;;
21868;SDS011;11099;41.564;23.296;2023-04-06T10:18:07;4.30;;;4.00;;
21868;SDS011;11099;41.564;23.296;2023-04-06T10:25:27;4.47;;;4.07;;
21868;SDS011;11099;41.564;23.296;2023-04-06T10:27:58;4.80;;;4.35;;
21868;SDS011;11099;41.564;23.296;2023-04-06T10:30:24;4.47;;;4.05;;
21868;SDS011;11099;41.564;23.296;2023-04-06T10:32:49;4.65;;;4.25;;
21868;SDS011;11099;41.564;23.296;2023-04-06T10:35:15;4.20;;;3.80;;
21868;SDS011;11099;41.564;23.296;2023-04-06T10:38:14;5.10;;;3.58;;
21868;SDS011;11099;41.564;23.296;2023-04-06T10:40:35;5.88;;;3.90;;
21868;SDS011;11099;41.564;23.296;2023-04-06T10:43:08;4.07;;;3.70;;
21868;SDS011;11099;41.564;23.296;2023-04-06T10:45:33;3.35;;;3.05;;
21868;SDS011;11099;41.564;23.296;2023-04-06T10:47:59;4.85;;;4.10;;
21868;SDS011;11099;41.564;23.296;2023-04-06T10:50:24;5.97;;;3.80;;
21868;SDS011;11099;41.564;23.296;2023-04-06T10:53:00;3.08;;;2.88;;
21868;SDS011;11099;41.564;23.296;2023-04-06T10:55:28;3.35;;;3.08;;
21868;SDS011;11099;41.564;23.296;2023-04-06T10:57:54;3.33;;;3.03;;
21868;SDS011;11099;41.564;23.296;2023-04-06T11:00:20;2.92;;;2.72;;
21868;SDS011;11099;41.564;23.296;2023-04-06T11:02:45;2.55;;;2.35;;
21868;SDS011;11099;41.564;23.296;2023-04-06T11:05:11;4.80;;;2.70;;
21868;SDS011;11099;41.564;23.296;2023-04-06T11:07:37;3.25;;;2.95;;
21868;SDS011;11099;41.564;23.296;2023-04-06T11:10:04;3.13;;;2.80;;
21868;SDS011;11099;41.564;23.296;2023-04-06T11:12:29;2.97;;;2.72;;
21868;SDS011;11099;41.564;23.296;2023-04-06T11:14:59;3.38;;;2.53;;
21868;SDS011;11099;41.564;23.296;2023-04-06T11:17:31;2.15;;;2.00;;
21868;SDS011;11099;41.564;23.296;2023-04-06T11:19:57;2.72;;;2.20;;
21868;SDS011;11099;41.564;23.296;2023-04-06T11:22:23;2.95;;;2.70;;
21868;SDS011;11099;41.564;23.296;2023-04-06T11:24:48;3.33;;;1.80;;
21868;SDS011;11099;41.564;23.296;2023-04-06T11:27:16;2.25;;;2.05;;
21868;SDS011;11099;41.564;23.296;2023-04-06T11:29:42;2.67;;;2.10;;
21868;SDS011;11099;41.564;23.296;2023-04-06T11:32:08;2.30;;;2.10;;
21868;SDS011;11099;41.564;23.296;2023-04-06T11:34:34;2.47;;;1.85;;
21868;SDS011;11099;41.564;23.296;2023-04-06T11:37:04;2.20;;;2.10;;
21868;SDS011;11099;41.564;23.296;2023-04-06T11:39:32;2.00;;;1.90;;
21868;SDS011;11099;41.564;23.296;2023-04-06T11:42:02;3.45;;;2.35;;
21868;SDS011;11099;41.564;23.296;2023-04-06T11:44:34;5.70;;;2.65;;
21868;SDS011;11099;41.564;23.296;2023-04-06T11:47:00;2.20;;;2.10;;
21868;SDS011;11099;41.564;23.296;2023-04-06T11:49:26;4.40;;;2.58;;
21868;SDS011;11099;41.564;23.296;2023-04-06T11:51:52;2.45;;;2.35;;
21868;SDS011;11099;41.564;23.296;2023-04-06T11:54:17;2.70;;;2.50;;
21868;SDS011;11099;41.564;23.296;2023-04-06T11:56:45;2.67;;;2.47;;
21868;SDS011;11099;41.564;23.296;2023-04-06T11:59:11;3.83;;;3.50;;
21868;SDS011;11099;41.564;23.296;2023-04-06T12:01:44;3.97;;;3.63;;
21868;SDS011;11099;41.564;23.296;2023-04-06T12:04:09;3.00;;;2.80;;
21868;SDS011;11099;41.564;23.296;2023-04-06T12:06:35;3.33;;;2.50;;
21868;SDS011;11099;41.564;23.296;2023-04-06T12:09:00;2.92;;;2.72;;
21868;SDS011;11099;41.564;23.296;2023-04-06T12:11:25;4.03;;;3.63;;
21868;SDS011;11099;41.564;23.296;2023-04-06T12:13:51;3.92;;;3.42;;
21868;SDS011;11099;41.564;23.296;2023-04-06T12:16:16;3.30;;;3.10;;
21868;SDS011;11099;41.564;23.296;2023-04-06T12:18:41;3.30;;;3.10;;
21868;SDS011;11099;41.564;23.296;2023-04-06T12:21:07;3.58;;;3.28;;
21868;SDS011;11099;41.564;23.296;2023-04-06T12:23:32;3.40;;;3.10;;
21868;SDS011;11099;41.564;23.296;2023-04-06T12:25:57;3.10;;;2.90;;
21868;SDS011;11099;41.564;23.296;2023-04-06T12:28:23;3.13;;;2.83;;
21868;SDS011;11099;41.564;23.296;2023-04-06T12:30:51;3.00;;;2.60;;
21868;SDS011;11099;41.564;23.296;2023-04-06T12:33:17;4.80;;;3.20;;
21868;SDS011;11099;41.564;23.296;2023-04-06T12:35:42;4.63;;;3.03;;
21868;SDS011;11099;41.564;23.296;2023-04-06T12:38:07;3.50;;;3.20;;
21868;SDS011;11099;41.564;23.296;2023-04-06T12:40:36;3.53;;;3.25;;
21868;SDS011;11099;41.564;23.296;2023-04-06T12:43:01;3.33;;;3.13;;
21868;SDS011;11099;41.564;23.296;2023-04-06T12:45:26;3.53;;;3.22;;
21868;SDS011;11099;41.564;23.296;2023-04-06T12:47:52;3.75;;;3.20;;
21868;SDS011;11099;41.564;23.296;2023-04-06T12:50:17;3.67;;;3.38;;
21868;SDS011;11099;41.564;23.296;2023-04-06T12:52:42;6.63;;;2.92;;
21868;SDS011;11099;41.564;23.296;2023-04-06T12:55:08;3.88;;;3.17;;
21868;SDS011;11099;41.564;23.296;2023-04-06T12:57:33;3.92;;;3.63;;
21868;SDS011;11099;41.564;23.296;2023-04-06T12:59:58;3.88;;;3.58;;
21868;SDS011;11099;41.564;23.296;2023-04-06T13:02:25;3.70;;;3.40;;
21868;SDS011;11099;41.564;23.296;2023-04-06T13:04:51;3.97;;;3.47;;
21868;SDS011;11099;41.564;23.296;2023-04-06T13:07:16;4.15;;;3.78;;
21868;SDS011;11099;41.564;23.296;2023-04-06T13:09:41;4.22;;;3.53;;
21868;SDS011;11099;41.564;23.296;2023-04-06T13:12:07;5.88;;;4.13;;
21868;SDS011;11099;41.564;23.296;2023-04-06T13:14:32;7.10;;;4.97;;
21868;SDS011;11099;41.564;23.296;2023-04-06T13:16:57;4.60;;;4.20;;
21868;SDS011;11099;41.564;23.296;2023-04-06T13:19:23;5.25;;;4.03;;
21868;SDS011;11099;41.564;23.296;2023-04-06T13:21:48;4.10;;;3.80;;
21868;SDS011;11099;41.564;23.296;2023-04-06T13:24:14;4.43;;;4.00;;
21868;SDS011;11099;41.564;23.296;2023-04-06T13:26:39;4.85;;;4.18;;
21868;SDS011;11099;41.564;23.296;2023-04-06T13:29:04;4.65;;;4.25;;
21868;SDS011;11099;41.564;23.296;2023-04-06T13:31:30;8.57;;;4.60;;
21868;SDS011;11099;41.564;23.296;2023-04-06T13:33:55;5.03;;;4.63;;
21868;SDS011;11099;41.564;23.296;2023-04-06T13:36:21;5.97;;;5.43;;
21868;SDS011;11099;41.564;23.296;2023-04-06T13:38:46;4.97;;;4.47;;
21868;SDS011;11099;41.564;23.296;2023-04-06T13:41:22;4.70;;;4.32;;
21868;SDS011;11099;41.564;23.296;2023-04-06T13:43:48;5.10;;;4.70;;
21868;SDS011;11099;41.564;23.296;2023-04-06T13:46:13;4.90;;;4.50;;
21868;SDS011;11099;41.564;23.296;2023-04-06T13:48:39;10.85;;;4.80;;
21868;SDS011;11099;41.564;23.296;2023-04-06T13:51:10;5.68;;;4.47;;
21868;SDS011;11099;41.564;23.296;2023-04-06T13:53:36;5.03;;;4.53;;
21868;SDS011;11099;41.564;23.296;2023-04-06T13:56:01;4.97;;;4.57;;
21868;SDS011;11099;41.564;23.296;2023-04-06T13:58:26;4.97;;;4.57;;
21868;SDS011;11099;41.564;23.296;2023-04-06T14:00:52;5.00;;;4.50;;
21868;SDS011;11099;41.564;23.296;2023-04-06T14:03:17;4.95;;;4.32;;
21868;SDS011;11099;41.564;23.296;2023-04-06T14:05:44;6.40;;;4.72;;
21868;SDS011;11099;41.564;23.296;2023-04-06T14:08:09;5.88;;;5.05;;
21868;SDS011;11099;41.564;23.296;2023-04-06T14:10:38;6.05;;;4.78;;
21868;SDS011;11099;41.564;23.296;2023-04-06T14:13:03;6.07;;;4.85;;
21868;SDS011;11099;41.564;23.296;2023-04-06T14:15:30;4.78;;;4.38;;
21868;SDS011;11099;41.564;23.296;2023-04-06T14:17:55;6.20;;;4.45;;
21868;SDS011;11099;41.564;23.296;2023-04-06T14:20:21;5.50;;;5.00;;
21868;SDS011;11099;41.564;23.296;2023-04-06T14:22:46;6.13;;;4.88;;